Terminal Aerodrome Forecast
Issued by NWS

Home | Current Version | Previous Version | Text Only | Print | Product List | Glossary On
Versions: 1 2 3 4 5 6 7 8 9 10 11 12 13 14 15 16
000
FTUS41 KRNK 302326
TAFBCB
TAF
KBCB 302326Z 3100/3124 00000KT P6SM SKC
     FM310500 00000KT P6SM SCT035
     FM311500 13004KT P6SM BKN035
     FM312200 00000KT 5SM -SHRA OVC035=

USA.gov is the U.S. government's official web portal to all federal, state and local government web resources and services.